createdAt,value
2018-04-26T00:06:35.356Z,10.40
2018-04-26T00:11:38.449Z,10.40
2018-04-26T00:16:42.297Z,10.30
2018-04-26T00:21:45.407Z,10.30
2018-04-26T00:26:48.882Z,10.20
2018-04-26T00:31:52.371Z,10.20
2018-04-26T00:36:55.866Z,10.10
2018-04-26T00:42:00.090Z,10.10
2018-04-26T00:47:03.179Z,10.10
2018-04-26T00:52:06.658Z,10.00
2018-04-26T00:57:09.759Z,10.00
2018-04-26T01:02:12.843Z,9.90
2018-04-26T01:17:26.335Z,9.80
2018-04-26T01:22:29.806Z,9.80
2018-04-26T01:37:49.207Z,9.70
2018-04-26T01:42:53.816Z,9.60
2018-04-26T01:47:58.402Z,9.60
2018-04-26T01:53:01.479Z,9.60
2018-04-26T01:58:05.317Z,9.50
2018-04-26T02:03:08.791Z,9.60
2018-04-26T02:08:12.270Z,9.60
2018-04-26T02:13:15.374Z,9.50
2018-04-26T02:18:19.215Z,9.50
2018-04-26T02:23:23.434Z,9.50
2018-04-26T02:28:27.291Z,9.50
2018-04-26T02:33:30.475Z,9.40
2018-04-26T02:43:38.755Z,9.30
2018-04-26T02:53:47.418Z,9.50
2018-04-26T02:58:50.508Z,9.70
2018-04-26T03:03:54.362Z,9.80
2018-04-26T03:08:57.454Z,9.90
2018-04-26T03:14:00.557Z,10.00
2018-04-26T03:19:03.647Z,10.10
2018-04-26T03:24:07.883Z,10.10
2018-04-26T03:29:11.743Z,10.20
2018-04-26T03:34:15.599Z,10.10
2018-04-26T03:39:19.844Z,10.20
2018-04-26T03:49:28.866Z,10.30
2018-04-26T03:54:31.967Z,10.30
2018-04-26T03:59:52.778Z,10.30
2018-04-26T04:05:14.010Z,10.30
2018-04-26T04:15:22.291Z,10.40
2018-04-26T04:20:25.376Z,10.40
2018-04-26T04:30:33.679Z,10.40
2018-04-26T04:35:36.758Z,10.40
2018-04-26T04:45:45.778Z,10.30
2018-04-26T04:55:54.480Z,10.30
2018-04-26T05:00:58.279Z,10.30
2018-04-26T05:06:01.759Z,10.30
2018-04-26T05:11:06.333Z,10.30
2018-04-26T05:16:09.467Z,10.30
2018-04-26T05:31:21.838Z,10.60
2018-04-26T05:36:25.347Z,10.70
2018-04-26T05:41:28.451Z,10.80
2018-04-26T05:46:31.961Z,10.80
2018-04-26T05:51:35.454Z,10.80
2018-04-26T06:06:48.583Z,12.20
2018-04-26T06:11:52.818Z,13.00
2018-04-26T06:16:57.449Z,13.80
2018-04-26T06:22:01.655Z,14.30
2018-04-26T06:27:04.780Z,15.10
2018-04-26T06:32:07.867Z,15.50
2018-04-26T06:37:11.736Z,15.80
2018-04-26T06:42:14.863Z,14.90
2018-04-26T06:47:18.696Z,14.10
2018-04-26T06:52:21.792Z,13.60
2018-04-26T06:57:26.040Z,13.10
2018-04-26T07:07:34.716Z,12.90
2018-04-26T07:12:37.823Z,13.10
2018-04-26T07:17:42.056Z,13.30
2018-04-26T07:22:45.181Z,13.90
2018-04-26T07:27:48.665Z,14.10
2018-04-26T07:32:52.900Z,13.60
2018-04-26T07:43:00.858Z,15.60
2018-04-26T07:48:03.944Z,15.60
2018-04-26T07:53:08.016Z,14.50
2018-04-26T08:08:24.325Z,13.90
2018-04-26T08:13:28.945Z,13.80
2018-04-26T08:18:32.437Z,14.00
2018-04-26T08:23:37.098Z,13.80
2018-04-26T08:28:42.257Z,13.60
2018-04-26T08:33:46.107Z,13.30
2018-04-26T08:38:49.970Z,13.30
2018-04-26T08:43:54.195Z,13.70
2018-04-26T08:48:58.065Z,13.70
2018-04-26T08:54:01.160Z,13.40
2018-04-26T08:59:04.259Z,13.50
2018-04-26T09:04:08.114Z,13.90
2018-04-26T09:09:11.224Z,15.00
2018-04-26T09:14:14.309Z,14.90
2018-04-26T09:29:26.324Z,13.50
2018-04-26T09:39:34.272Z,13.40
2018-04-26T09:44:37.392Z,13.30
2018-04-26T09:54:46.093Z,15.10
2018-04-26T10:04:55.331Z,15.70
2018-04-26T10:25:11.748Z,15.40
2018-04-26T10:30:15.607Z,15.20
2018-04-26T10:45:28.735Z,14.80
2018-04-26T10:50:32.599Z,14.40
2018-04-26T11:00:40.894Z,14.40
2018-04-26T11:05:43.988Z,14.70
2018-04-26T11:10:47.096Z,15.10
2018-04-26T11:26:00.658Z,14.90
2018-04-26T12:06:35.718Z,15.60
2018-04-26T12:11:39.591Z,15.90
2018-04-26T12:37:00.415Z,16.00
2018-04-26T12:42:03.571Z,16.20
2018-04-26T12:47:07.748Z,16.40
2018-04-26T12:57:16.055Z,16.10
2018-04-26T13:02:20.676Z,16.10
2018-04-26T13:07:23.763Z,16.00
2018-04-26T13:12:27.987Z,16.00
2018-04-26T13:22:37.042Z,16.30
2018-04-26T13:42:54.266Z,16.40
2018-04-26T13:47:57.748Z,16.40
2018-04-26T13:53:00.849Z,16.50
2018-04-26T13:58:04.719Z,16.50
2018-04-26T14:13:17.811Z,16.40
2018-04-26T14:23:25.732Z,16.20
2018-04-26T14:28:29.225Z,16.40
2018-04-26T14:33:33.419Z,16.40
2018-04-26T14:48:46.548Z,15.90
2018-04-26T14:53:50.059Z,15.70
2018-04-26T14:58:55.181Z,15.60
2018-04-26T15:03:59.078Z,15.20
2018-04-26T15:14:07.041Z,14.80
2018-04-26T15:19:11.277Z,14.40
2018-04-26T15:29:19.603Z,14.60
2018-04-26T15:39:28.652Z,14.80
2018-04-26T15:44:32.880Z,14.80
2018-04-26T15:49:35.980Z,14.90
2018-04-26T16:00:50.347Z,15.00
2018-04-26T16:06:30.682Z,15.10
2018-04-26T16:11:52.168Z,15.20
2018-04-26T16:34:27.776Z,15.30
2018-04-26T16:44:35.299Z,15.20
2018-04-26T16:49:39.528Z,15.00
2018-04-26T16:59:48.582Z,14.80
2018-04-26T17:04:52.812Z,14.70
2018-04-26T17:09:55.863Z,14.70
2018-04-26T17:14:58.958Z,14.60
2018-04-26T17:20:03.195Z,14.50
2018-04-26T17:30:11.556Z,14.50
2018-04-26T17:35:14.775Z,14.50
2018-04-26T17:40:18.334Z,14.20
2018-04-26T17:45:21.322Z,14.20
2018-04-26T17:50:25.769Z,14.10
2018-04-26T17:55:30.371Z,14.10
2018-04-26T18:00:35.699Z,14.00
2018-04-26T18:05:39.557Z,14.00
2018-04-26T18:15:48.215Z,13.90
2018-04-26T18:20:51.699Z,13.90
2018-04-26T18:25:55.547Z,13.80
2018-04-26T18:30:58.632Z,13.80
2018-04-26T18:36:01.859Z,13.70
2018-04-26T18:41:05.954Z,13.50
2018-04-26T18:51:15.044Z,13.30
2018-04-26T19:01:23.706Z,13.10
2018-04-26T19:06:26.782Z,13.10
2018-04-26T19:11:30.658Z,13.00
2018-04-26T19:16:33.747Z,12.90
2018-04-26T19:21:36.831Z,12.70
2018-04-26T19:31:45.116Z,12.40
2018-04-26T19:36:48.595Z,12.30
2018-04-26T19:41:52.458Z,12.20
2018-04-26T19:46:57.362Z,12.20
2018-04-26T20:02:10.987Z,12.00
2018-04-26T20:12:19.990Z,11.80
2018-04-26T20:22:28.288Z,11.50
2018-04-26T20:37:41.378Z,11.10
2018-04-26T20:42:44.468Z,11.00
2018-04-26T20:47:48.694Z,10.90
2018-04-26T20:52:52.171Z,10.80
2018-04-26T20:57:55.250Z,10.70
2018-04-26T21:02:58.330Z,10.60
2018-04-26T21:13:07.425Z,10.50
2018-04-26T21:28:20.141Z,10.40
2018-04-26T21:38:28.043Z,10.30
2018-04-26T21:43:31.141Z,10.10
2018-04-26T21:53:45.916Z,10.00
2018-04-26T21:58:54.533Z,10.00
2018-04-26T22:04:03.998Z,9.90
2018-04-26T22:14:12.139Z,9.70
2018-04-26T22:19:15.619Z,9.70
2018-04-26T22:29:23.879Z,9.50
2018-04-26T22:39:31.372Z,9.30
2018-04-26T22:44:34.854Z,9.10
2018-04-26T22:49:39.082Z,9.00
2018-04-26T22:54:42.160Z,8.90
2018-04-26T22:59:46.730Z,8.80
2018-04-26T23:04:51.347Z,8.70
2018-04-26T23:09:55.188Z,8.60
2018-04-26T23:20:02.788Z,8.50
2018-04-26T23:25:07.020Z,8.40
2018-04-26T23:30:11.265Z,8.40
2018-04-26T23:35:14.722Z,8.30
2018-04-26T23:45:22.239Z,8.10
2018-04-26T23:50:25.734Z,8.00
2018-04-26T23:55:28.798Z,8.00
